Pond Eddy, New York
Current Conditions -  °F | °C
As of 10:55 AM on Friday 19 Dec 2014 (Local Time) from KMSV Reporting Station
Overcast Overcast  
Wind Chill: 15°   Ceiling: 2100
Heat Index: 27°   Visibility: 10mi
Dew Point: 19°   Wind: 14mph
Humidity: 74%   Direction: 310°NW
Pressure: 30.03"   Gusts: 20mph
Location:  41.44°N, 74.82°W
Report Text: KMSV 191555Z AUTO 31012G17KT 10SM OVC021 M03/M07 A3003 RMK AO1
Loading
Personal Weather Stations






























Interactive Weather Map New forecast layout! Learn more

10-Day Weather Forecast

Advertisements
Track Severe Weather on mobile